sensor_id;sensor_type;location;lat;lon;timestamp;temperature;humidity
38380;DHT22;38377;47.418;18.882;2023-07-29T00:01:30;18.00;99.90
38380;DHT22;38377;47.418;18.882;2023-07-29T00:03:56;18.00;99.90
38380;DHT22;38377;47.418;18.882;2023-07-29T00:06:21;18.10;99.90
38380;DHT22;38377;47.418;18.882;2023-07-29T00:08:47;18.00;99.90
38380;DHT22;38377;47.418;18.882;2023-07-29T00:11:13;18.10;99.90
38380;DHT22;38377;47.418;18.882;2023-07-29T00:13:38;18.00;99.90
38380;DHT22;38377;47.418;18.882;2023-07-29T00:16:04;18.10;99.90
38380;DHT22;38377;47.418;18.882;2023-07-29T00:18:30;18.10;99.90
38380;DHT22;38377;47.418;18.882;2023-07-29T00:20:56;18.00;99.90
38380;DHT22;38377;47.418;18.882;2023-07-29T00:23:23;18.00;99.90
38380;DHT22;38377;47.418;18.882;2023-07-29T00:25:48;18.00;99.90
38380;DHT22;38377;47.418;18.882;2023-07-29T00:28:14;18.10;99.90
38380;DHT22;38377;47.418;18.882;2023-07-29T00:30:40;18.10;99.90
38380;DHT22;38377;47.418;18.882;2023-07-29T00:33:06;18.10;99.90
38380;DHT22;38377;47.418;18.882;2023-07-29T00:35:31;18.10;99.90
38380;DHT22;38377;47.418;18.882;2023-07-29T00:37:57;18.00;99.90
38380;DHT22;38377;47.418;18.882;2023-07-29T00:40:23;18.00;99.90
38380;DHT22;38377;47.418;18.882;2023-07-29T00:42:49;17.90;99.90
38380;DHT22;38377;47.418;18.882;2023-07-29T00:45:16;17.80;99.90
38380;DHT22;38377;47.418;18.882;2023-07-29T00:47:42;17.80;99.90
38380;DHT22;38377;47.418;18.882;2023-07-29T00:50:10;17.70;99.90
38380;DHT22;38377;47.418;18.882;2023-07-29T00:52:36;17.70;99.90
38380;DHT22;38377;47.418;18.882;2023-07-29T00:55:03;17.60;99.90
38380;DHT22;38377;47.418;18.882;2023-07-29T00:57:30;17.60;99.90
38380;DHT22;38377;47.418;18.882;2023-07-29T00:59:56;17.50;99.90
38380;DHT22;38377;47.418;18.882;2023-07-29T01:02:22;17.60;99.90
38380;DHT22;38377;47.418;18.882;2023-07-29T01:04:58;17.60;99.90
38380;DHT22;38377;47.418;18.882;2023-07-29T01:07:47;17.60;99.90
38380;DHT22;38377;47.418;18.882;2023-07-29T01:10:46;17.60;99.90
38380;DHT22;38377;47.418;18.882;2023-07-29T01:13:58;17.50;99.90
38380;DHT22;38377;47.418;18.882;2023-07-29T01:16:31;17.50;99.90
38380;DHT22;38377;47.418;18.882;2023-07-29T01:19:05;17.40;99.90
38380;DHT22;38377;47.418;18.882;2023-07-29T01:21:33;17.40;99.90
38380;DHT22;38377;47.418;18.882;2023-07-29T01:24:00;17.30;99.90
38380;DHT22;38377;47.418;18.882;2023-07-29T01:26:26;17.20;99.90
38380;DHT22;38377;47.418;18.882;2023-07-29T01:29:12;17.10;99.90
38380;DHT22;38377;47.418;18.882;2023-07-29T01:31:44;17.10;99.90
38380;DHT22;38377;47.418;18.882;2023-07-29T01:35:03;17.10;99.90
38380;DHT22;38377;47.418;18.882;2023-07-29T01:37:12;17.00;99.90
38380;DHT22;38377;47.418;18.882;2023-07-29T01:39:41;16.90;99.90
38380;DHT22;38377;47.418;18.882;2023-07-29T01:42:09;16.90;99.90
38380;DHT22;38377;47.418;18.882;2023-07-29T01:47:41;16.90;99.90
38380;DHT22;38377;47.418;18.882;2023-07-29T01:50:07;17.00;99.90
38380;DHT22;38377;47.418;18.882;2023-07-29T01:52:33;16.90;99.90
38380;DHT22;38377;47.418;18.882;2023-07-29T01:54:59;16.90;99.90
38380;DHT22;38377;47.418;18.882;2023-07-29T01:57:25;16.80;99.90
38380;DHT22;38377;47.418;18.882;2023-07-29T01:59:51;16.70;99.90
38380;DHT22;38377;47.418;18.882;2023-07-29T02:02:16;16.60;99.90
38380;DHT22;38377;47.418;18.882;2023-07-29T02:04:42;16.60;99.90
38380;DHT22;38377;47.418;18.882;2023-07-29T02:07:08;16.60;99.90
38380;DHT22;38377;47.418;18.882;2023-07-29T02:09:33;16.60;99.90
38380;DHT22;38377;47.418;18.882;2023-07-29T02:11:59;16.60;99.90
38380;DHT22;38377;47.418;18.882;2023-07-29T02:14:24;16.60;99.90
38380;DHT22;38377;47.418;18.882;2023-07-29T02:16:50;16.60;99.90
38380;DHT22;38377;47.418;18.882;2023-07-29T02:19:16;16.50;99.90
38380;DHT22;38377;47.418;18.882;2023-07-29T02:21:41;16.40;99.90
38380;DHT22;38377;47.418;18.882;2023-07-29T02:24:07;16.40;99.90
38380;DHT22;38377;47.418;18.882;2023-07-29T02:26:35;16.30;99.90
38380;DHT22;38377;47.418;18.882;2023-07-29T02:29:00;16.40;99.90
38380;DHT22;38377;47.418;18.882;2023-07-29T02:31:26;16.40;99.90
38380;DHT22;38377;47.418;18.882;2023-07-29T02:33:52;16.30;99.90
38380;DHT22;38377;47.418;18.882;2023-07-29T02:36:18;16.30;99.90
38380;DHT22;38377;47.418;18.882;2023-07-29T02:38:44;16.30;99.90
38380;DHT22;38377;47.418;18.882;2023-07-29T02:41:10;16.40;99.90
38380;DHT22;38377;47.418;18.882;2023-07-29T02:43:38;16.50;99.90
38380;DHT22;38377;47.418;18.882;2023-07-29T02:46:04;16.50;99.90
38380;DHT22;38377;47.418;18.882;2023-07-29T02:48:30;16.50;99.90
38380;DHT22;38377;47.418;18.882;2023-07-29T02:50:56;16.60;99.90
38380;DHT22;38377;47.418;18.882;2023-07-29T02:53:22;16.60;99.90
38380;DHT22;38377;47.418;18.882;2023-07-29T02:55:48;16.70;99.90
38380;DHT22;38377;47.418;18.882;2023-07-29T02:58:14;16.80;99.90
38380;DHT22;38377;47.418;18.882;2023-07-29T03:00:40;16.90;99.90
38380;DHT22;38377;47.418;18.882;2023-07-29T03:03:09;17.10;99.90
38380;DHT22;38377;47.418;18.882;2023-07-29T03:05:34;17.30;99.90
38380;DHT22;38377;47.418;18.882;2023-07-29T03:08:00;17.50;99.90
38380;DHT22;38377;47.418;18.882;2023-07-29T03:10:26;17.70;99.90
38380;DHT22;38377;47.418;18.882;2023-07-29T03:12:55;17.70;99.90
38380;DHT22;38377;47.418;18.882;2023-07-29T03:15:24;17.60;99.90
38380;DHT22;38377;47.418;18.882;2023-07-29T03:17:51;17.50;99.90
38380;DHT22;38377;47.418;18.882;2023-07-29T03:20:17;17.30;99.90
38380;DHT22;38377;47.418;18.882;2023-07-29T03:22:44;17.30;99.90
38380;DHT22;38377;47.418;18.882;2023-07-29T03:25:09;17.30;99.90
38380;DHT22;38377;47.418;18.882;2023-07-29T03:27:35;17.30;99.90
38380;DHT22;38377;47.418;18.882;2023-07-29T03:30:05;17.30;99.90
38380;DHT22;38377;47.418;18.882;2023-07-29T03:32:31;17.30;99.90
38380;DHT22;38377;47.418;18.882;2023-07-29T03:34:57;17.30;99.90
38380;DHT22;38377;47.418;18.882;2023-07-29T03:37:22;17.30;99.90
38380;DHT22;38377;47.418;18.882;2023-07-29T03:39:48;17.30;99.90
38380;DHT22;38377;47.418;18.882;2023-07-29T03:42:14;17.40;99.90
38380;DHT22;38377;47.418;18.882;2023-07-29T03:44:39;17.40;99.90
38380;DHT22;38377;47.418;18.882;2023-07-29T03:47:06;17.40;99.90
38380;DHT22;38377;47.418;18.882;2023-07-29T03:49:32;17.40;99.90
38380;DHT22;38377;47.418;18.882;2023-07-29T03:51:57;17.40;99.90
38380;DHT22;38377;47.418;18.882;2023-07-29T03:54:23;17.50;99.90
38380;DHT22;38377;47.418;18.882;2023-07-29T03:56:49;17.20;99.90
38380;DHT22;38377;47.418;18.882;2023-07-29T03:59:14;17.10;99.90
38380;DHT22;38377;47.418;18.882;2023-07-29T04:01:40;17.10;99.90
38380;DHT22;38377;47.418;18.882;2023-07-29T04:04:06;17.10;99.90
38380;DHT22;38377;47.418;18.882;2023-07-29T04:06:31;17.30;99.90
38380;DHT22;38377;47.418;18.882;2023-07-29T04:08:57;17.30;99.90
38380;DHT22;38377;47.418;18.882;2023-07-29T04:11:23;17.40;99.90
38380;DHT22;38377;47.418;18.882;2023-07-29T04:13:49;17.50;99.90
38380;DHT22;38377;47.418;18.882;2023-07-29T04:16:15;17.70;99.90
38380;DHT22;38377;47.418;18.882;2023-07-29T04:18:42;17.80;99.90
38380;DHT22;38377;47.418;18.882;2023-07-29T04:21:08;17.90;99.90
38380;DHT22;38377;47.418;18.882;2023-07-29T04:23:33;18.00;99.90
38380;DHT22;38377;47.418;18.882;2023-07-29T04:25:59;18.10;99.90
38380;DHT22;38377;47.418;18.882;2023-07-29T04:28:24;18.20;99.90
38380;DHT22;38377;47.418;18.882;2023-07-29T04:30:50;18.30;99.90
38380;DHT22;38377;47.418;18.882;2023-07-29T04:33:16;18.50;99.90
38380;DHT22;38377;47.418;18.882;2023-07-29T04:35:41;18.70;99.90
38380;DHT22;38377;47.418;18.882;2023-07-29T04:38:07;19.00;99.90
38380;DHT22;38377;47.418;18.882;2023-07-29T04:40:33;19.60;99.90
38380;DHT22;38377;47.418;18.882;2023-07-29T04:43:01;19.80;99.90
38380;DHT22;38377;47.418;18.882;2023-07-29T04:45:30;20.00;99.90
38380;DHT22;38377;47.418;18.882;2023-07-29T04:47:56;20.20;99.90
38380;DHT22;38377;47.418;18.882;2023-07-29T04:50:22;20.30;99.90
38380;DHT22;38377;47.418;18.882;2023-07-29T04:52:47;20.20;99.90
38380;DHT22;38377;47.418;18.882;2023-07-29T04:55:13;20.30;99.90
38380;DHT22;38377;47.418;18.882;2023-07-29T04:57:39;20.30;99.90
38380;DHT22;38377;47.418;18.882;2023-07-29T05:00:05;20.50;99.90
38380;DHT22;38377;47.418;18.882;2023-07-29T05:02:31;20.70;99.90
38380;DHT22;38377;47.418;18.882;2023-07-29T05:04:56;20.90;99.90
38380;DHT22;38377;47.418;18.882;2023-07-29T05:07:22;21.30;99.90
38380;DHT22;38377;47.418;18.882;2023-07-29T05:09:48;21.60;99.90
38380;DHT22;38377;47.418;18.882;2023-07-29T05:12:14;21.70;99.90
38380;DHT22;38377;47.418;18.882;2023-07-29T05:14:40;21.70;99.90
38380;DHT22;38377;47.418;18.882;2023-07-29T05:17:06;21.90;99.90
38380;DHT22;38377;47.418;18.882;2023-07-29T05:19:31;22.00;99.90
38380;DHT22;38377;47.418;18.882;2023-07-29T05:21:57;22.10;99.90
38380;DHT22;38377;47.418;18.882;2023-07-29T05:24:23;22.20;99.90
38380;DHT22;38377;47.418;18.882;2023-07-29T05:26:49;22.20;99.90
38380;DHT22;38377;47.418;18.882;2023-07-29T05:29:15;22.30;99.90
38380;DHT22;38377;47.418;18.882;2023-07-29T05:31:40;22.60;99.90
38380;DHT22;38377;47.418;18.882;2023-07-29T05:34:06;22.70;99.90
38380;DHT22;38377;47.418;18.882;2023-07-29T05:36:31;23.00;99.90
38380;DHT22;38377;47.418;18.882;2023-07-29T05:38:58;23.20;99.90
38380;DHT22;38377;47.418;18.882;2023-07-29T05:41:23;23.00;99.90
38380;DHT22;38377;47.418;18.882;2023-07-29T05:43:49;22.80;99.90
38380;DHT22;38377;47.418;18.882;2023-07-29T05:46:15;22.60;99.90
38380;DHT22;38377;47.418;18.882;2023-07-29T05:48:40;22.60;99.90
38380;DHT22;38377;47.418;18.882;2023-07-29T05:51:06;22.70;99.90
38380;DHT22;38377;47.418;18.882;2023-07-29T05:53:34;22.70;99.90
38380;DHT22;38377;47.418;18.882;2023-07-29T05:55:59;22.50;99.90
38380;DHT22;38377;47.418;18.882;2023-07-29T05:58:25;22.40;99.90
38380;DHT22;38377;47.418;18.882;2023-07-29T06:00:51;22.30;99.90
38380;DHT22;38377;47.418;18.882;2023-07-29T06:03:17;22.20;99.90
38380;DHT22;38377;47.418;18.882;2023-07-29T06:05:42;22.10;99.90
38380;DHT22;38377;47.418;18.882;2023-07-29T06:08:08;22.20;99.90
38380;DHT22;38377;47.418;18.882;2023-07-29T06:10:36;22.20;99.90
38380;DHT22;38377;47.418;18.882;2023-07-29T06:13:02;22.20;99.90
38380;DHT22;38377;47.418;18.882;2023-07-29T06:15:28;22.20;99.90
38380;DHT22;38377;47.418;18.882;2023-07-29T06:17:53;22.10;99.90
38380;DHT22;38377;47.418;18.882;2023-07-29T06:20:19;22.10;99.90
38380;DHT22;38377;47.418;18.882;2023-07-29T06:22:45;22.20;99.90
38380;DHT22;38377;47.418;18.882;2023-07-29T06:25:10;22.30;99.90
38380;DHT22;38377;47.418;18.882;2023-07-29T06:27:36;22.40;99.90
38380;DHT22;38377;47.418;18.882;2023-07-29T06:30:02;22.60;99.90
38380;DHT22;38377;47.418;18.882;2023-07-29T06:32:28;22.70;99.90
38380;DHT22;38377;47.418;18.882;2023-07-29T06:34:53;22.70;99.90
38380;DHT22;38377;47.418;18.882;2023-07-29T06:37:20;22.70;99.90
38380;DHT22;38377;47.418;18.882;2023-07-29T06:39:46;22.80;99.90
38380;DHT22;38377;47.418;18.882;2023-07-29T06:42:12;22.90;99.90
38380;DHT22;38377;47.418;18.882;2023-07-29T06:44:37;23.10;99.90
38380;DHT22;38377;47.418;18.882;2023-07-29T06:47:03;23.10;99.90
38380;DHT22;38377;47.418;18.882;2023-07-29T06:49:29;23.20;99.90
38380;DHT22;38377;47.418;18.882;2023-07-29T06:51:55;23.30;99.90
38380;DHT22;38377;47.418;18.882;2023-07-29T06:54:24;23.40;99.90
38380;DHT22;38377;47.418;18.882;2023-07-29T06:56:51;23.60;99.90
38380;DHT22;38377;47.418;18.882;2023-07-29T06:59:17;23.70;99.90
38380;DHT22;38377;47.418;18.882;2023-07-29T07:01:43;23.70;99.90
38380;DHT22;38377;47.418;18.882;2023-07-29T07:04:08;23.90;99.90
38380;DHT22;38377;47.418;18.882;2023-07-29T07:06:34;24.00;99.90
38380;DHT22;38377;47.418;18.882;2023-07-29T07:09:00;24.10;99.90
38380;DHT22;38377;47.418;18.882;2023-07-29T07:11:26;24.20;99.90
38380;DHT22;38377;47.418;18.882;2023-07-29T07:13:51;24.40;99.90
38380;DHT22;38377;47.418;18.882;2023-07-29T07:16:17;24.60;99.80
38380;DHT22;38377;47.418;18.882;2023-07-29T07:18:43;24.90;99.70
38380;DHT22;38377;47.418;18.882;2023-07-29T07:21:09;24.90;97.70
38380;DHT22;38377;47.418;18.882;2023-07-29T07:23:34;25.00;98.50
38380;DHT22;38377;47.418;18.882;2023-07-29T07:26:00;25.10;99.00
38380;DHT22;38377;47.418;18.882;2023-07-29T07:28:25;25.20;98.30
38380;DHT22;38377;47.418;18.882;2023-07-29T07:30:51;25.30;97.10
38380;DHT22;38377;47.418;18.882;2023-07-29T07:33:17;25.40;96.60
38380;DHT22;38377;47.418;18.882;2023-07-29T07:35:43;25.40;96.40
38380;DHT22;38377;47.418;18.882;2023-07-29T07:38:09;25.50;96.50
38380;DHT22;38377;47.418;18.882;2023-07-29T07:40:35;25.80;96.50
38380;DHT22;38377;47.418;18.882;2023-07-29T07:43:01;26.10;95.40
38380;DHT22;38377;47.418;18.882;2023-07-29T07:45:27;26.10;94.70
38380;DHT22;38377;47.418;18.882;2023-07-29T07:47:53;26.10;94.90
38380;DHT22;38377;47.418;18.882;2023-07-29T07:50:19;26.20;95.50
38380;DHT22;38377;47.418;18.882;2023-07-29T07:52:45;26.10;95.50
38380;DHT22;38377;47.418;18.882;2023-07-29T07:55:11;26.30;95.10
38380;DHT22;38377;47.418;18.882;2023-07-29T07:57:37;26.20;94.90
38380;DHT22;38377;47.418;18.882;2023-07-29T08:00:03;26.40;93.90
38380;DHT22;38377;47.418;18.882;2023-07-29T08:02:30;26.40;93.70
38380;DHT22;38377;47.418;18.882;2023-07-29T08:04:55;26.40;94.00
38380;DHT22;38377;47.418;18.882;2023-07-29T08:07:21;26.80;93.50
38380;DHT22;38377;47.418;18.882;2023-07-29T08:09:47;27.00;93.40
38380;DHT22;38377;47.418;18.882;2023-07-29T08:12:12;27.10;92.60
38380;DHT22;38377;47.418;18.882;2023-07-29T08:14:38;27.40;91.20
38380;DHT22;38377;47.418;18.882;2023-07-29T08:17:04;27.40;91.80
38380;DHT22;38377;47.418;18.882;2023-07-29T08:19:30;27.40;90.30
38380;DHT22;38377;47.418;18.882;2023-07-29T08:21:55;27.80;88.40
38380;DHT22;38377;47.418;18.882;2023-07-29T08:24:21;27.80;87.00
38380;DHT22;38377;47.418;18.882;2023-07-29T08:26:47;28.00;85.70
38380;DHT22;38377;47.418;18.882;2023-07-29T08:29:12;27.80;85.70
38380;DHT22;38377;47.418;18.882;2023-07-29T08:31:39;27.90;88.30
38380;DHT22;38377;47.418;18.882;2023-07-29T08:34:04;27.90;87.50
38380;DHT22;38377;47.418;18.882;2023-07-29T08:36:30;27.90;82.90
38380;DHT22;38377;47.418;18.882;2023-07-29T08:38:56;27.80;84.60
38380;DHT22;38377;47.418;18.882;2023-07-29T08:41:26;28.00;86.90
38380;DHT22;38377;47.418;18.882;2023-07-29T08:44:21;28.40;84.10
38380;DHT22;38377;47.418;18.882;2023-07-29T08:46:46;28.50;83.70
38380;DHT22;38377;47.418;18.882;2023-07-29T08:49:12;28.60;79.80
38380;DHT22;38377;47.418;18.882;2023-07-29T08:51:39;28.50;81.60
38380;DHT22;38377;47.418;18.882;2023-07-29T08:54:07;28.60;79.80
38380;DHT22;38377;47.418;18.882;2023-07-29T08:56:33;28.70;79.00
38380;DHT22;38377;47.418;18.882;2023-07-29T08:58:59;28.60;79.50
38380;DHT22;38377;47.418;18.882;2023-07-29T09:01:27;28.70;78.40
38380;DHT22;38377;47.418;18.882;2023-07-29T09:03:53;29.00;79.60
38380;DHT22;38377;47.418;18.882;2023-07-29T09:06:19;29.10;78.70
38380;DHT22;38377;47.418;18.882;2023-07-29T09:08:49;28.90;79.00
38380;DHT22;38377;47.418;18.882;2023-07-29T09:11:15;28.90;80.00
38380;DHT22;38377;47.418;18.882;2023-07-29T09:13:43;28.90;75.80
38380;DHT22;38377;47.418;18.882;2023-07-29T09:16:09;29.00;77.80
38380;DHT22;38377;47.418;18.882;2023-07-29T09:18:35;29.40;77.00
38380;DHT22;38377;47.418;18.882;2023-07-29T09:21:01;29.40;74.70
38380;DHT22;38377;47.418;18.882;2023-07-29T09:23:27;29.10;76.10
38380;DHT22;38377;47.418;18.882;2023-07-29T09:26:03;29.30;77.80
38380;DHT22;38377;47.418;18.882;2023-07-29T09:28:37;29.40;74.10
38380;DHT22;38377;47.418;18.882;2023-07-29T09:31:03;29.50;74.40
38380;DHT22;38377;47.418;18.882;2023-07-29T09:33:32;29.50;74.40
38380;DHT22;38377;47.418;18.882;2023-07-29T09:36:00;29.60;77.40
38380;DHT22;38377;47.418;18.882;2023-07-29T09:38:29;29.60;77.20
38380;DHT22;38377;47.418;18.882;2023-07-29T09:40:58;29.80;72.70
38380;DHT22;38377;47.418;18.882;2023-07-29T09:43:30;29.80;73.20
38380;DHT22;38377;47.418;18.882;2023-07-29T09:46:03;29.30;74.30
38380;DHT22;38377;47.418;18.882;2023-07-29T09:48:36;29.30;75.70
38380;DHT22;38377;47.418;18.882;2023-07-29T09:51:15;29.60;75.20
38380;DHT22;38377;47.418;18.882;2023-07-29T09:53:56;29.50;74.40
38380;DHT22;38377;47.418;18.882;2023-07-29T09:56:25;29.60;75.20
38380;DHT22;38377;47.418;18.882;2023-07-29T09:58:52;29.50;76.30
38380;DHT22;38377;47.418;18.882;2023-07-29T10:01:18;29.70;75.10
38380;DHT22;38377;47.418;18.882;2023-07-29T10:03:44;30.10;73.70
38380;DHT22;38377;47.418;18.882;2023-07-29T10:06:11;29.90;73.00
38380;DHT22;38377;47.418;18.882;2023-07-29T10:08:39;30.10;72.50
38380;DHT22;38377;47.418;18.882;2023-07-29T10:11:06;30.30;71.70
38380;DHT22;38377;47.418;18.882;2023-07-29T10:13:32;30.10;72.80
38380;DHT22;38377;47.418;18.882;2023-07-29T10:15:59;29.90;72.60
38380;DHT22;38377;47.418;18.882;2023-07-29T10:18:28;29.90;72.20
38380;DHT22;38377;47.418;18.882;2023-07-29T10:20:56;29.90;71.90
38380;DHT22;38377;47.418;18.882;2023-07-29T10:23:25;29.50;70.80
38380;DHT22;38377;47.418;18.882;2023-07-29T10:26:01;29.50;69.90
38380;DHT22;38377;47.418;18.882;2023-07-29T10:28:30;29.50;72.80
38380;DHT22;38377;47.418;18.882;2023-07-29T10:30:57;30.00;73.00
38380;DHT22;38377;47.418;18.882;2023-07-29T10:33:23;29.90;70.50
38380;DHT22;38377;47.418;18.882;2023-07-29T10:35:49;29.60;70.70
38380;DHT22;38377;47.418;18.882;2023-07-29T10:38:16;29.70;72.60
38380;DHT22;38377;47.418;18.882;2023-07-29T10:40:54;29.80;70.80
38380;DHT22;38377;47.418;18.882;2023-07-29T10:43:32;29.70;70.80
38380;DHT22;38377;47.418;18.882;2023-07-29T10:46:19;29.50;71.90
38380;DHT22;38377;47.418;18.882;2023-07-29T10:48:55;29.00;72.20
38380;DHT22;38377;47.418;18.882;2023-07-29T10:51:25;28.80;72.80
38380;DHT22;38377;47.418;18.882;2023-07-29T10:54:00;28.50;72.10
38380;DHT22;38377;47.418;18.882;2023-07-29T10:56:31;28.60;74.10
38380;DHT22;38377;47.418;18.882;2023-07-29T10:59:00;28.80;74.90
38380;DHT22;38377;47.418;18.882;2023-07-29T11:01:28;29.10;73.70
38380;DHT22;38377;47.418;18.882;2023-07-29T11:04:21;29.50;70.50
38380;DHT22;38377;47.418;18.882;2023-07-29T11:17:38;30.40;69.80
38380;DHT22;38377;47.418;18.882;2023-07-29T11:20:05;30.70;70.00
38380;DHT22;38377;47.418;18.882;2023-07-29T11:22:31;30.90;69.10
38380;DHT22;38377;47.418;18.882;2023-07-29T11:24:56;30.40;68.90
38380;DHT22;38377;47.418;18.882;2023-07-29T11:27:22;30.20;68.80
38380;DHT22;38377;47.418;18.882;2023-07-29T11:29:48;30.30;69.70
38380;DHT22;38377;47.418;18.882;2023-07-29T11:32:15;30.40;69.20
38380;DHT22;38377;47.418;18.882;2023-07-29T11:34:41;30.60;69.80
38380;DHT22;38377;47.418;18.882;2023-07-29T11:37:10;30.80;68.20
38380;DHT22;38377;47.418;18.882;2023-07-29T11:39:43;30.90;67.40
38380;DHT22;38377;47.418;18.882;2023-07-29T11:42:13;30.30;68.80
38380;DHT22;38377;47.418;18.882;2023-07-29T11:44:39;30.00;71.30
38380;DHT22;38377;47.418;18.882;2023-07-29T11:47:08;29.80;70.10
38380;DHT22;38377;47.418;18.882;2023-07-29T11:49:35;30.10;68.40
38380;DHT22;38377;47.418;18.882;2023-07-29T11:52:02;30.10;68.90
38380;DHT22;38377;47.418;18.882;2023-07-29T11:54:29;30.40;69.70
38380;DHT22;38377;47.418;18.882;2023-07-29T11:56:55;30.40;69.70
38380;DHT22;38377;47.418;18.882;2023-07-29T11:59:21;30.50;69.30
38380;DHT22;38377;47.418;18.882;2023-07-29T12:01:47;30.90;69.50
38380;DHT22;38377;47.418;18.882;2023-07-29T12:04:13;30.80;69.00
38380;DHT22;38377;47.418;18.882;2023-07-29T12:06:42;30.30;69.10
38380;DHT22;38377;47.418;18.882;2023-07-29T12:09:08;30.00;69.20
38380;DHT22;38377;47.418;18.882;2023-07-29T12:11:34;30.00;68.30
38380;DHT22;38377;47.418;18.882;2023-07-29T12:14:00;30.00;68.10
38380;DHT22;38377;47.418;18.882;2023-07-29T12:16:26;29.90;67.50
38380;DHT22;38377;47.418;18.882;2023-07-29T12:18:52;29.70;67.80
38380;DHT22;38377;47.418;18.882;2023-07-29T12:21:21;29.70;68.00
38380;DHT22;38377;47.418;18.882;2023-07-29T12:23:46;29.40;68.30
38380;DHT22;38377;47.418;18.882;2023-07-29T12:26:12;29.70;69.20
38380;DHT22;38377;47.418;18.882;2023-07-29T12:28:38;30.10;69.30
38380;DHT22;38377;47.418;18.882;2023-07-29T12:31:07;30.40;68.10
38380;DHT22;38377;47.418;18.882;2023-07-29T12:33:36;30.60;67.80
38380;DHT22;38377;47.418;18.882;2023-07-29T12:36:04;30.80;66.20
38380;DHT22;38377;47.418;18.882;2023-07-29T12:38:30;30.60;65.50
38380;DHT22;38377;47.418;18.882;2023-07-29T12:40:56;30.30;65.90
38380;DHT22;38377;47.418;18.882;2023-07-29T12:43:22;29.90;65.70
38380;DHT22;38377;47.418;18.882;2023-07-29T12:45:50;30.00;65.90
38380;DHT22;38377;47.418;18.882;2023-07-29T12:48:16;30.40;67.40
38380;DHT22;38377;47.418;18.882;2023-07-29T12:50:42;31.00;66.30
38380;DHT22;38377;47.418;18.882;2023-07-29T12:53:08;31.30;66.40
38380;DHT22;38377;47.418;18.882;2023-07-29T12:55:37;30.80;63.90
38380;DHT22;38377;47.418;18.882;2023-07-29T12:58:03;31.10;65.30
38380;DHT22;38377;47.418;18.882;2023-07-29T13:00:29;31.40;65.00
38380;DHT22;38377;47.418;18.882;2023-07-29T13:02:55;31.60;65.20
38380;DHT22;38377;47.418;18.882;2023-07-29T13:05:21;31.60;63.20
38380;DHT22;38377;47.418;18.882;2023-07-29T13:07:46;31.50;62.10
38380;DHT22;38377;47.418;18.882;2023-07-29T13:10:12;31.70;61.70
38380;DHT22;38377;47.418;18.882;2023-07-29T13:12:38;31.70;61.30
38380;DHT22;38377;47.418;18.882;2023-07-29T13:15:05;31.70;62.20
38380;DHT22;38377;47.418;18.882;2023-07-29T13:17:33;31.40;61.90
38380;DHT22;38377;47.418;18.882;2023-07-29T13:19:59;31.30;63.30
38380;DHT22;38377;47.418;18.882;2023-07-29T13:22:24;31.10;62.40
38380;DHT22;38377;47.418;18.882;2023-07-29T13:24:50;30.80;63.90
38380;DHT22;38377;47.418;18.882;2023-07-29T13:27:16;30.50;63.40
38380;DHT22;38377;47.418;18.882;2023-07-29T13:29:41;30.70;65.90
38380;DHT22;38377;47.418;18.882;2023-07-29T13:32:09;30.90;63.20
38380;DHT22;38377;47.418;18.882;2023-07-29T13:34:35;30.70;64.00
38380;DHT22;38377;47.418;18.882;2023-07-29T13:37:00;30.30;65.60
38380;DHT22;38377;47.418;18.882;2023-07-29T13:39:26;30.20;64.20
38380;DHT22;38377;47.418;18.882;2023-07-29T13:41:53;30.30;65.00
38380;DHT22;38377;47.418;18.882;2023-07-29T13:44:19;30.50;63.40
38380;DHT22;38377;47.418;18.882;2023-07-29T13:46:45;30.70;63.10
38380;DHT22;38377;47.418;18.882;2023-07-29T13:49:10;30.80;62.60
38380;DHT22;38377;47.418;18.882;2023-07-29T13:51:37;31.00;63.40
38380;DHT22;38377;47.418;18.882;2023-07-29T13:54:02;31.00;64.70
38380;DHT22;38377;47.418;18.882;2023-07-29T13:56:28;31.00;63.30
38380;DHT22;38377;47.418;18.882;2023-07-29T13:58:53;31.10;62.30
38380;DHT22;38377;47.418;18.882;2023-07-29T14:01:19;31.10;63.30
38380;DHT22;38377;47.418;18.882;2023-07-29T14:03:45;31.20;64.10
38380;DHT22;38377;47.418;18.882;2023-07-29T14:06:11;31.40;62.30
38380;DHT22;38377;47.418;18.882;2023-07-29T14:08:36;31.30;64.40
38380;DHT22;38377;47.418;18.882;2023-07-29T14:11:02;30.70;65.00
38380;DHT22;38377;47.418;18.882;2023-07-29T14:13:27;31.10;63.10
38380;DHT22;38377;47.418;18.882;2023-07-29T14:15:54;31.20;64.90
38380;DHT22;38377;47.418;18.882;2023-07-29T14:18:20;31.20;64.00
38380;DHT22;38377;47.418;18.882;2023-07-29T14:20:45;31.10;64.10
38380;DHT22;38377;47.418;18.882;2023-07-29T14:23:11;30.70;65.60
38380;DHT22;38377;47.418;18.882;2023-07-29T14:25:37;30.70;65.10
38380;DHT22;38377;47.418;18.882;2023-07-29T14:28:02;30.50;64.60
38380;DHT22;38377;47.418;18.882;2023-07-29T14:30:28;30.40;65.10
38380;DHT22;38377;47.418;18.882;2023-07-29T14:32:54;30.50;65.60
38380;DHT22;38377;47.418;18.882;2023-07-29T14:35:19;30.60;64.40
38380;DHT22;38377;47.418;18.882;2023-07-29T14:37:45;30.30;66.00
38380;DHT22;38377;47.418;18.882;2023-07-29T14:40:11;29.90;65.90
38380;DHT22;38377;47.418;18.882;2023-07-29T14:42:36;29.70;66.90
38380;DHT22;38377;47.418;18.882;2023-07-29T14:45:02;29.70;68.50
38380;DHT22;38377;47.418;18.882;2023-07-29T14:47:28;30.00;69.90
38380;DHT22;38377;47.418;18.882;2023-07-29T14:49:54;30.40;67.30
38380;DHT22;38377;47.418;18.882;2023-07-29T14:52:19;30.40;66.40
38380;DHT22;38377;47.418;18.882;2023-07-29T14:54:45;30.10;67.40
38380;DHT22;38377;47.418;18.882;2023-07-29T14:57:11;30.00;68.00
38380;DHT22;38377;47.418;18.882;2023-07-29T14:59:36;29.80;68.20
38380;DHT22;38377;47.418;18.882;2023-07-29T15:02:02;29.90;70.40
38380;DHT22;38377;47.418;18.882;2023-07-29T15:04:28;30.10;68.90
38380;DHT22;38377;47.418;18.882;2023-07-29T15:06:53;30.30;68.00
38380;DHT22;38377;47.418;18.882;2023-07-29T15:09:19;30.30;68.30
38380;DHT22;38377;47.418;18.882;2023-07-29T15:11:45;30.30;69.60
38380;DHT22;38377;47.418;18.882;2023-07-29T15:14:11;30.40;68.80
38380;DHT22;38377;47.418;18.882;2023-07-29T15:16:37;30.30;68.60
38380;DHT22;38377;47.418;18.882;2023-07-29T15:19:04;30.10;67.40
38380;DHT22;38377;47.418;18.882;2023-07-29T15:21:30;30.10;68.80
38380;DHT22;38377;47.418;18.882;2023-07-29T15:23:59;30.20;68.80
38380;DHT22;38377;47.418;18.882;2023-07-29T15:26:24;29.90;67.60
38380;DHT22;38377;47.418;18.882;2023-07-29T15:28:50;29.60;69.30